EXP933 RPLL-RPVM
Flight info
| Callsign | EXP933 |
|---|---|
| Flight time | N/A |
| Altitude | 33000 |
| Route | IPATA2R IPATA W25 BATAY BATAY3P |
| Aircraft | A20N/M-SDE2E3FGHIRWXY/LB1 |
Departure
| Time | 2026-05-05 14:21 |
|---|---|
| Airport | Ninoy Aquino International Airport (RPLL) |
Arrival
| Time | N/A |
|---|---|
| Airport | Mactan Cebu International Airport (RPVM) |
| Time | Latitude | Longitude | Altitude | Speed | Heading |
|---|---|---|---|---|---|
| 2026-05-05 13:51 | 14.50680 | 121.01103 | 83 ft | 0 kts | 329° |
| 2026-05-05 14:13 | 14.50679 | 121.01104 | 84 ft | 1 kts | 330° |
| 2026-05-05 14:13 | 14.50666 | 121.01115 | 84 ft | 2 kts | 302° |
| 2026-05-05 14:13 | 14.50660 | 121.01133 | 84 ft | 2 kts | 278° |
| 2026-05-05 14:13 | 14.50660 | 121.01153 | 84 ft | 2 kts | 252° |
| 2026-05-05 14:14 | 14.50668 | 121.01169 | 84 ft | 2 kts | 237° |
| 2026-05-05 14:14 | 14.50673 | 121.01176 | 84 ft | 0 kts | 241° |
| 2026-05-05 14:16 | 14.50672 | 121.01174 | 83 ft | 1 kts | 241° |
| 2026-05-05 14:16 | 14.50664 | 121.01159 | 83 ft | 3 kts | 241° |
| 2026-05-05 14:17 | 14.50643 | 121.01135 | 83 ft | 5 kts | 210° |
| 2026-05-05 14:17 | 14.50597 | 121.01131 | 83 ft | 7 kts | 175° |
| 2026-05-05 14:17 | 14.50556 | 121.01115 | 83 ft | 7 kts | 239° |
| 2026-05-05 14:17 | 14.50526 | 121.01061 | 83 ft | 9 kts | 241° |
| 2026-05-05 14:18 | 14.50490 | 121.00996 | 83 ft | 11 kts | 239° |
| 2026-05-05 14:18 | 14.50445 | 121.00917 | 83 ft | 13 kts | 239° |
| 2026-05-05 14:18 | 14.50392 | 121.00826 | 83 ft | 16 kts | 240° |
| 2026-05-05 14:18 | 14.50332 | 121.00721 | 83 ft | 17 kts | 233° |
| 2026-05-05 14:19 | 14.50272 | 121.00610 | 83 ft | 18 kts | 242° |
| 2026-05-05 14:19 | 14.50208 | 121.00492 | 83 ft | 19 kts | 240° |
| 2026-05-05 14:19 | 14.50142 | 121.00372 | 83 ft | 19 kts | 240° |
| 2026-05-05 14:19 | 14.50072 | 121.00246 | 83 ft | 20 kts | 239° |
| 2026-05-05 14:20 | 14.50001 | 121.00116 | 83 ft | 21 kts | 240° |
| 2026-05-05 14:20 | 14.49927 | 120.99992 | 83 ft | 17 kts | 227° |
| 2026-05-05 14:20 | 14.49831 | 120.99992 | 83 ft | 14 kts | 147° |
| 2026-05-05 14:20 | 14.49835 | 121.00100 | 84 ft | 20 kts | 60° |
| 2026-05-05 14:21 | 14.50016 | 121.00432 | 84 ft | 90 kts | 60° |
| 2026-05-05 14:21 | 14.50427 | 121.01175 | 85 ft | 150 kts | 60° |
| 2026-05-05 14:21 | 14.50935 | 121.02124 | 587 ft | 156 kts | 63° |
| 2026-05-05 14:21 | 14.51442 | 121.03099 | 1181 ft | 161 kts | 65° |
| 2026-05-05 14:22 | 14.52165 | 121.04470 | 2019 ft | 166 kts | 63° |
| 2026-05-05 14:22 | 14.52557 | 121.05164 | 2315 ft | 172 kts | 62° |
| 2026-05-05 14:22 | 14.53191 | 121.06267 | 2634 ft | 187 kts | 62° |
| 2026-05-05 14:22 | 14.53870 | 121.07458 | 2957 ft | 203 kts | 62° |
| 2026-05-05 14:23 | 14.54627 | 121.08804 | 3238 ft | 224 kts | 62° |
| 2026-05-05 14:23 | 14.55444 | 121.10263 | 3594 ft | 245 kts | 62° |
| 2026-05-05 14:23 | 14.56324 | 121.11840 | 4026 ft | 263 kts | 63° |
| 2026-05-05 14:23 | 14.57079 | 121.13582 | 4530 ft | 274 kts | 75° |
| 2026-05-05 14:24 | 14.57472 | 121.15524 | 5206 ft | 280 kts | 88° |
| 2026-05-05 14:24 | 14.57142 | 121.17471 | 5880 ft | 279 kts | 121° |
| 2026-05-05 14:24 | 14.55907 | 121.18974 | 6664 ft | 276 kts | 141° |
| 2026-05-05 14:24 | 14.54431 | 121.20252 | 7353 ft | 282 kts | 143° |
| 2026-05-05 14:25 | 14.53494 | 121.21050 | 7758 ft | 287 kts | 143° |
| 2026-05-05 14:25 | 14.51953 | 121.22382 | 8506 ft | 291 kts | 142° |
| 2026-05-05 14:25 | 14.50415 | 121.23731 | 9165 ft | 297 kts | 142° |
| 2026-05-05 14:25 | 14.48843 | 121.25127 | 9848 ft | 302 kts | 141° |
| 2026-05-05 14:26 | 14.47233 | 121.26567 | 10450 ft | 310 kts | 141° |
| 2026-05-05 14:26 | 14.45580 | 121.28052 | 10784 ft | 327 kts | 141° |
| 2026-05-05 14:26 | 14.43821 | 121.29636 | 11098 ft | 344 kts | 140° |
| 2026-05-05 14:26 | 14.41990 | 121.31290 | 11586 ft | 354 kts | 140° |
| 2026-05-05 14:27 | 14.40136 | 121.32966 | 12243 ft | 359 kts | 140° |
| 2026-05-05 14:27 | 14.38268 | 121.34660 | 12919 ft | 362 kts | 140° |
| 2026-05-05 14:27 | 14.36382 | 121.36371 | 13610 ft | 364 kts | 140° |
| 2026-05-05 14:27 | 14.34475 | 121.38099 | 14300 ft | 367 kts | 140° |
| 2026-05-05 14:28 | 14.32545 | 121.39846 | 14985 ft | 369 kts | 140° |
| 2026-05-05 14:28 | 14.30631 | 121.41578 | 15650 ft | 371 kts | 140° |
| 2026-05-05 14:28 | 14.28681 | 121.43340 | 16311 ft | 374 kts | 140° |
| 2026-05-05 14:28 | 14.26739 | 121.45094 | 16954 ft | 376 kts | 141° |
| 2026-05-05 14:29 | 14.24779 | 121.46866 | 17589 ft | 378 kts | 141° |
| 2026-05-05 14:29 | 14.22791 | 121.48660 | 18218 ft | 380 kts | 141° |
| 2026-05-05 14:29 | 14.20793 | 121.50465 | 18835 ft | 382 kts | 141° |
| 2026-05-05 14:29 | 14.18807 | 121.52257 | 19429 ft | 385 kts | 141° |
| 2026-05-05 14:30 | 14.16808 | 121.54061 | 20011 ft | 387 kts | 141° |
| 2026-05-05 14:30 | 14.14778 | 121.55893 | 20595 ft | 389 kts | 141° |
| 2026-05-05 14:30 | 14.12736 | 121.57735 | 21166 ft | 391 kts | 141° |
| 2026-05-05 14:30 | 14.10701 | 121.59572 | 21721 ft | 393 kts | 140° |
| 2026-05-05 14:31 | 14.08651 | 121.61421 | 22266 ft | 396 kts | 140° |
| 2026-05-05 14:31 | 14.06579 | 121.63290 | 22803 ft | 398 kts | 140° |
| 2026-05-05 14:31 | 14.04495 | 121.65169 | 23329 ft | 400 kts | 141° |
| 2026-05-05 14:31 | 14.02406 | 121.67062 | 23839 ft | 402 kts | 140° |
| 2026-05-05 14:32 | 14.00319 | 121.68955 | 24330 ft | 405 kts | 140° |
| 2026-05-05 14:32 | 13.98243 | 121.70835 | 24804 ft | 407 kts | 140° |
| 2026-05-05 14:32 | 13.96121 | 121.72752 | 25271 ft | 409 kts | 140° |
| 2026-05-05 14:32 | 13.94000 | 121.74664 | 25719 ft | 411 kts | 140° |
| 2026-05-05 14:33 | 13.91837 | 121.76612 | 26162 ft | 413 kts | 140° |
| 2026-05-05 14:33 | 13.89751 | 121.78489 | 26574 ft | 415 kts | 140° |
| 2026-05-05 14:33 | 13.87573 | 121.80428 | 26986 ft | 417 kts | 141° |
| 2026-05-05 14:33 | 13.85290 | 121.82291 | 27387 ft | 419 kts | 144° |
| 2026-05-05 14:34 | 13.82938 | 121.84074 | 27771 ft | 421 kts | 145° |
| 2026-05-05 14:34 | 13.80591 | 121.85841 | 28137 ft | 423 kts | 144° |
| 2026-05-05 14:34 | 13.78207 | 121.87633 | 28490 ft | 425 kts | 144° |
| 2026-05-05 14:34 | 13.75842 | 121.89414 | 28821 ft | 427 kts | 144° |
| 2026-05-05 14:35 | 13.73444 | 121.91220 | 29143 ft | 429 kts | 144° |
| 2026-05-05 14:35 | 13.71028 | 121.93040 | 29455 ft | 431 kts | 144° |
| 2026-05-05 14:35 | 13.68634 | 121.94845 | 29833 ft | 430 kts | 144° |
| 2026-05-05 14:35 | 13.66253 | 121.96639 | 30253 ft | 428 kts | 144° |
| 2026-05-05 14:36 | 13.63858 | 121.98444 | 30653 ft | 427 kts | 144° |
| 2026-05-05 14:36 | 13.61504 | 122.00218 | 31008 ft | 426 kts | 144° |
| 2026-05-05 14:36 | 13.59117 | 122.02016 | 31332 ft | 426 kts | 144° |
| 2026-05-05 14:36 | 13.56735 | 122.03811 | 31603 ft | 427 kts | 144° |
| 2026-05-05 14:37 | 13.54331 | 122.05621 | 31858 ft | 428 kts | 144° |
| 2026-05-05 14:37 | 13.51925 | 122.07432 | 32115 ft | 429 kts | 144° |
| 2026-05-05 14:37 | 13.49521 | 122.09242 | 32361 ft | 430 kts | 144° |
| 2026-05-05 14:37 | 13.47118 | 122.11049 | 32594 ft | 431 kts | 144° |
| 2026-05-05 14:38 | 13.44714 | 122.12857 | 32821 ft | 432 kts | 144° |
| 2026-05-05 14:38 | 13.42278 | 122.14689 | 32885 ft | 434 kts | 144° |
| 2026-05-05 14:38 | 13.37431 | 122.18333 | 32897 ft | 434 kts | 144° |
| 2026-05-05 14:39 | 13.32585 | 122.21973 | 32900 ft | 434 kts | 144° |
| 2026-05-05 14:39 | 13.27721 | 122.25625 | 32900 ft | 434 kts | 144° |
| 2026-05-05 14:40 | 13.22878 | 122.29260 | 32901 ft | 434 kts | 144° |
| 2026-05-05 14:40 | 13.18014 | 122.32908 | 32901 ft | 434 kts | 144° |
| 2026-05-05 14:41 | 13.13177 | 122.36534 | 32901 ft | 433 kts | 144° |
| 2026-05-05 14:41 | 13.08305 | 122.40188 | 32900 ft | 434 kts | 144° |
| 2026-05-05 14:42 | 13.03464 | 122.43816 | 32900 ft | 436 kts | 144° |
| 2026-05-05 14:42 | 12.98568 | 122.47481 | 32900 ft | 438 kts | 144° |
| 2026-05-05 14:43 | 12.94477 | 122.50539 | 32900 ft | 440 kts | 144° |
| 2026-05-05 14:43 | 12.89686 | 122.54120 | 32901 ft | 440 kts | 144° |